createdAt,value
2023-09-18T00:02:07.130Z,10.85
2023-09-18T00:04:33.866Z,9.93
2023-09-18T00:07:00.708Z,10.15
2023-09-18T00:09:27.495Z,10.38
2023-09-18T00:11:54.243Z,9.65
2023-09-18T00:14:21.003Z,10.02
2023-09-18T00:16:58.241Z,10.50
2023-09-18T00:19:25.743Z,10.02
2023-09-18T00:21:52.574Z,10.10
2023-09-18T00:24:19.310Z,9.82
2023-09-18T00:26:46.166Z,9.82
2023-09-18T00:29:12.973Z,9.60
2023-09-18T00:31:39.758Z,10.25
2023-09-18T00:34:07.933Z,9.70
2023-09-18T00:36:34.749Z,9.88
2023-09-18T00:39:01.453Z,9.52
2023-09-18T00:41:28.205Z,9.30
2023-09-18T00:43:55.117Z,10.38
2023-09-18T00:46:22.106Z,9.80
2023-09-18T00:48:48.805Z,10.00
2023-09-18T00:51:17.011Z,8.95
2023-09-18T00:53:44.148Z,9.57
2023-09-18T00:56:10.934Z,10.27
2023-09-18T00:58:37.855Z,10.70
2023-09-18T01:01:04.692Z,9.73
2023-09-18T01:03:31.566Z,9.52
2023-09-18T01:05:58.405Z,9.73
2023-09-18T01:08:26.596Z,9.93
2023-09-18T01:10:57.319Z,10.00
2023-09-18T01:13:27.166Z,10.38
2023-09-18T01:15:55.812Z,9.23
2023-09-18T01:18:22.592Z,9.70
2023-09-18T01:20:49.368Z,9.18
2023-09-18T01:23:17.965Z,10.70
2023-09-18T01:25:44.728Z,9.55
2023-09-18T01:28:11.473Z,10.50
2023-09-18T01:30:38.208Z,9.52
2023-09-18T01:33:05.024Z,9.50
2023-09-18T01:35:31.820Z,9.93
2023-09-18T01:37:58.670Z,9.35
2023-09-18T01:40:26.925Z,9.18
2023-09-18T01:42:53.802Z,9.43
2023-09-18T01:45:20.567Z,10.00
2023-09-18T01:47:47.387Z,9.43
2023-09-18T01:50:14.202Z,10.18
2023-09-18T01:52:40.974Z,9.43
2023-09-18T01:55:08.786Z,9.50
2023-09-18T01:57:36.918Z,9.65
2023-09-18T02:00:04.233Z,9.55
2023-09-18T02:02:51.969Z,9.95
2023-09-18T02:05:18.495Z,9.45
2023-09-18T02:07:45.364Z,10.07
2023-09-18T02:10:12.138Z,9.18
2023-09-18T02:12:40.240Z,10.00
2023-09-18T02:15:08.109Z,9.00
2023-09-18T02:17:34.947Z,9.88
2023-09-18T02:20:01.893Z,9.95
2023-09-18T02:22:28.690Z,9.30
2023-09-18T02:24:55.424Z,9.50
2023-09-18T02:27:22.146Z,10.38
2023-09-18T02:29:50.248Z,9.20
2023-09-18T02:32:17.018Z,9.93
2023-09-18T02:34:43.893Z,10.35
2023-09-18T02:37:10.785Z,9.75
2023-09-18T02:39:37.536Z,9.77
2023-09-18T02:42:04.661Z,8.90
2023-09-18T02:44:31.483Z,9.50
2023-09-18T02:46:59.608Z,9.05
2023-09-18T02:49:26.445Z,9.73
2023-09-18T02:51:53.147Z,10.45
2023-09-18T02:54:19.857Z,9.10
2023-09-18T02:56:46.632Z,9.18
2023-09-18T02:59:13.433Z,9.75
2023-09-18T03:01:40.247Z,9.95
2023-09-18T03:04:08.526Z,10.15
2023-09-18T03:06:35.365Z,9.93
2023-09-18T03:09:02.094Z,10.25
2023-09-18T03:11:28.868Z,9.35
2023-09-18T03:13:55.566Z,9.45
2023-09-18T03:16:22.329Z,9.35
2023-09-18T03:18:49.068Z,9.63
2023-09-18T03:21:17.178Z,9.40
2023-09-18T03:23:43.902Z,9.82
2023-09-18T03:26:10.711Z,10.43
2023-09-18T03:28:37.498Z,9.10
2023-09-18T03:31:04.244Z,10.13
2023-09-18T03:33:31.063Z,9.25
2023-09-18T03:35:57.855Z,9.10
2023-09-18T03:38:26.130Z,10.48
2023-09-18T03:40:52.902Z,9.93
2023-09-18T03:43:19.614Z,9.93
2023-09-18T03:45:46.392Z,9.70
2023-09-18T03:48:13.233Z,9.07
2023-09-18T03:50:40.281Z,10.70
2023-09-18T03:53:08.328Z,9.95
2023-09-18T03:55:36.710Z,9.50
2023-09-18T03:58:03.752Z,10.07
2023-09-18T04:00:30.512Z,9.32
2023-09-18T04:02:57.367Z,9.75
2023-09-18T04:05:24.342Z,10.10
2023-09-18T04:07:51.134Z,10.05
2023-09-18T04:10:17.975Z,9.73
2023-09-18T04:12:46.345Z,9.75
2023-09-18T04:15:14.190Z,10.07
2023-09-18T04:17:41.026Z,9.40
2023-09-18T04:20:08.819Z,10.30
2023-09-18T04:22:35.578Z,10.52
2023-09-18T04:25:02.411Z,9.23
2023-09-18T04:27:29.219Z,9.85
2023-09-18T04:29:57.358Z,9.68
2023-09-18T04:32:24.241Z,10.77
2023-09-18T04:34:51.016Z,10.27
2023-09-18T04:37:17.746Z,10.65
2023-09-18T04:39:44.555Z,10.60
2023-09-18T04:42:11.344Z,10.15
2023-09-18T04:44:38.123Z,10.35
2023-09-18T04:47:06.343Z,10.55
2023-09-18T04:49:33.095Z,11.15
2023-09-18T04:51:59.846Z,9.68
2023-09-18T04:54:26.593Z,10.00
2023-09-18T04:56:54.261Z,12.25
2023-09-18T04:59:21.058Z,11.07
2023-09-18T05:01:47.788Z,10.63
2023-09-18T05:04:15.989Z,11.40
2023-09-18T05:06:42.683Z,11.60
2023-09-18T05:09:09.535Z,10.82
2023-09-18T05:11:36.312Z,11.18
2023-09-18T05:14:03.169Z,11.23
2023-09-18T05:16:30.067Z,11.50
2023-09-18T05:18:56.844Z,11.45
2023-09-18T05:21:24.968Z,11.43
2023-09-18T05:23:52.429Z,9.68
2023-09-18T05:26:19.339Z,11.23
2023-09-18T05:28:46.081Z,10.63
2023-09-18T05:31:12.974Z,10.20
2023-09-18T05:33:39.708Z,11.07
2023-09-18T05:36:06.457Z,10.15
2023-09-18T05:38:34.666Z,9.30
2023-09-18T05:41:01.379Z,10.27
2023-09-18T05:43:28.166Z,10.23
2023-09-18T05:45:55.402Z,8.90
2023-09-18T05:48:22.128Z,9.68
2023-09-18T05:50:49.014Z,7.78
2023-09-18T05:53:15.942Z,8.93
2023-09-18T05:55:44.122Z,9.32
2023-09-18T05:58:10.857Z,9.10
2023-09-18T06:00:37.687Z,8.18
2023-09-18T06:03:04.893Z,8.25
2023-09-18T06:05:31.742Z,8.35
2023-09-18T06:07:58.988Z,8.63
2023-09-18T06:10:25.735Z,8.88
2023-09-18T06:12:53.870Z,8.88
2023-09-18T06:15:20.654Z,8.20
2023-09-18T06:17:47.509Z,9.07
2023-09-18T06:20:15.858Z,8.13
2023-09-18T06:22:42.649Z,7.97
2023-09-18T06:25:09.628Z,8.18
2023-09-18T06:27:36.392Z,8.10
2023-09-18T06:30:05.208Z,7.25
2023-09-18T06:32:32.002Z,7.75
2023-09-18T06:34:58.796Z,7.93
2023-09-18T06:37:25.620Z,7.20
2023-09-18T06:39:52.400Z,7.22
2023-09-18T06:42:19.216Z,7.68
2023-09-18T06:44:46.146Z,6.85
2023-09-18T06:47:14.375Z,7.10
2023-09-18T06:49:41.241Z,8.02
2023-09-18T06:52:08.059Z,7.18
2023-09-18T06:54:34.764Z,6.97
2023-09-18T06:57:01.498Z,6.32
2023-09-18T06:59:30.750Z,6.65
2023-09-18T07:01:58.635Z,6.93
2023-09-18T07:04:26.936Z,8.30
2023-09-18T07:06:53.726Z,7.70
2023-09-18T07:09:20.540Z,7.30
2023-09-18T07:11:47.351Z,7.50
2023-09-18T07:14:14.171Z,7.38
2023-09-18T07:16:41.004Z,7.35
2023-09-18T07:19:07.712Z,6.85
2023-09-18T07:21:35.850Z,7.13
2023-09-18T07:24:02.584Z,6.47
2023-09-18T07:26:29.310Z,8.10
2023-09-18T07:28:56.296Z,6.90
2023-09-18T07:31:23.318Z,7.60
2023-09-18T07:33:50.096Z,7.15
2023-09-18T07:36:16.930Z,7.20
2023-09-18T07:38:45.932Z,6.97
2023-09-18T07:41:12.728Z,7.55
2023-09-18T07:43:39.594Z,7.25
2023-09-18T07:46:06.424Z,6.60
2023-09-18T07:48:33.201Z,8.23
2023-09-18T07:51:00.017Z,7.22
2023-09-18T07:53:26.748Z,7.32
2023-09-18T07:55:58.267Z,7.90
2023-09-18T07:58:24.995Z,7.15
2023-09-18T08:00:51.726Z,6.90
2023-09-18T08:03:18.577Z,7.72
2023-09-18T08:05:45.347Z,7.70
2023-09-18T08:08:12.218Z,6.72
2023-09-18T08:10:38.993Z,6.88
2023-09-18T08:13:07.166Z,6.97
2023-09-18T08:15:33.928Z,6.72
2023-09-18T08:18:00.853Z,7.30
2023-09-18T08:20:27.898Z,6.60
2023-09-18T08:22:57.435Z,6.72
2023-09-18T08:25:25.192Z,6.07
2023-09-18T08:27:51.981Z,7.18
2023-09-18T08:30:20.359Z,6.00
2023-09-18T08:32:47.219Z,6.20
2023-09-18T08:35:14.212Z,6.68
2023-09-18T08:37:41.356Z,6.63
2023-09-18T08:40:11.439Z,6.25
2023-09-18T08:42:42.394Z,6.85
2023-09-18T08:45:10.579Z,6.68
2023-09-18T08:47:38.859Z,6.03
2023-09-18T08:50:06.670Z,6.63
2023-09-18T08:52:33.438Z,6.60
2023-09-18T08:55:00.229Z,6.68
2023-09-18T08:57:27.081Z,5.93
2023-09-18T08:59:54.000Z,6.15
2023-09-18T09:02:20.761Z,5.63
2023-09-18T09:04:50.449Z,5.97
2023-09-18T09:07:19.330Z,6.57
2023-09-18T09:09:46.067Z,6.10
2023-09-18T09:12:12.795Z,5.88
2023-09-18T09:14:39.650Z,6.22
2023-09-18T09:17:06.419Z,6.13
2023-09-18T09:19:33.764Z,5.85
2023-09-18T09:22:02.057Z,6.25
2023-09-18T09:24:39.308Z,6.03
2023-09-18T09:27:06.103Z,6.10
2023-09-18T09:29:32.848Z,6.18
2023-09-18T09:32:14.454Z,6.32
2023-09-18T09:34:42.248Z,5.65
2023-09-18T09:37:10.595Z,5.63
2023-09-18T09:39:47.600Z,5.93
2023-09-18T09:42:14.332Z,5.32
2023-09-18T09:44:41.159Z,5.20
2023-09-18T09:47:07.947Z,6.10
2023-09-18T09:49:41.424Z,5.60
2023-09-18T09:52:11.763Z,5.97
2023-09-18T09:54:38.552Z,5.88
2023-09-18T09:57:05.677Z,5.57
2023-09-18T09:59:32.540Z,5.82
2023-09-18T10:01:59.304Z,5.30
2023-09-18T10:04:26.387Z,4.60
2023-09-18T10:06:53.787Z,5.00
2023-09-18T10:09:22.241Z,5.35
2023-09-18T10:11:51.027Z,6.53
2023-09-18T10:14:19.104Z,6.30
2023-09-18T10:16:47.055Z,5.47
2023-09-18T10:19:18.275Z,5.38
2023-09-18T10:21:47.674Z,5.50
2023-09-18T10:24:18.492Z,5.93
2023-09-18T10:26:50.533Z,5.68
2023-09-18T10:29:17.259Z,5.85
2023-09-18T10:31:44.173Z,5.63
2023-09-18T10:34:10.971Z,5.30
2023-09-18T10:36:37.684Z,6.10
2023-09-18T10:39:04.800Z,6.03
2023-09-18T10:41:31.548Z,5.38
2023-09-18T10:43:59.686Z,6.50
2023-09-18T10:46:26.676Z,5.22
2023-09-18T10:48:53.670Z,5.90
2023-09-18T10:51:21.236Z,5.40
2023-09-18T10:53:48.646Z,5.80
2023-09-18T10:56:16.058Z,5.20
2023-09-18T10:58:42.964Z,5.57
2023-09-18T11:01:12.434Z,5.88
2023-09-18T11:03:39.863Z,5.95
2023-09-18T11:06:07.490Z,6.38
2023-09-18T11:08:34.944Z,6.45
2023-09-18T11:11:07.118Z,5.45
2023-09-18T11:13:37.059Z,6.05
2023-09-18T11:16:14.083Z,6.40
2023-09-18T11:18:42.420Z,6.38
2023-09-18T11:21:10.114Z,6.03
2023-09-18T11:23:37.239Z,6.10
2023-09-18T11:26:05.204Z,6.13
2023-09-18T11:28:34.798Z,5.65
2023-09-18T11:31:02.098Z,6.22
2023-09-18T11:33:35.195Z,6.45
2023-09-18T11:36:06.225Z,6.32
2023-09-18T11:38:33.249Z,6.07
2023-09-18T11:41:00.243Z,6.68
2023-09-18T11:43:27.524Z,6.72
2023-09-18T11:45:55.158Z,5.80
2023-09-18T11:48:22.077Z,6.82
2023-09-18T11:50:49.046Z,6.32
2023-09-18T11:53:17.305Z,6.65
2023-09-18T11:55:44.221Z,5.93
2023-09-18T11:58:10.988Z,5.97
2023-09-18T12:00:37.735Z,6.63
2023-09-18T12:03:15.130Z,6.50
2023-09-18T12:05:41.941Z,7.05
2023-09-18T12:08:08.731Z,6.40
2023-09-18T12:10:37.005Z,6.35
2023-09-18T12:13:07.015Z,6.50
2023-09-18T12:15:33.742Z,6.22
2023-09-18T12:18:06.530Z,6.22
2023-09-18T12:20:33.355Z,5.97
2023-09-18T12:23:00.100Z,6.35
2023-09-18T12:25:26.889Z,6.07
2023-09-18T12:27:55.021Z,6.68
2023-09-18T12:30:22.381Z,6.78
2023-09-18T12:32:51.738Z,7.85
2023-09-18T12:35:18.660Z,6.22
2023-09-18T12:37:45.690Z,6.35
2023-09-18T12:40:23.002Z,6.65
2023-09-18T12:42:49.820Z,5.60
2023-09-18T12:45:18.141Z,6.38
2023-09-18T12:47:45.040Z,6.20
2023-09-18T12:50:13.971Z,6.30
2023-09-18T12:52:40.833Z,5.30
2023-09-18T12:55:08.309Z,6.70
2023-09-18T12:57:35.046Z,5.75
2023-09-18T13:00:09.582Z,6.50
2023-09-18T13:02:37.835Z,6.15
2023-09-18T13:05:05.330Z,6.72
2023-09-18T13:07:32.050Z,5.68
2023-09-18T13:10:01.855Z,5.28
2023-09-18T13:12:40.588Z,5.95
2023-09-18T13:15:08.345Z,6.30
2023-09-18T13:17:40.822Z,5.72
2023-09-18T13:20:10.981Z,5.70
2023-09-18T13:22:38.192Z,6.38
2023-09-18T13:25:05.801Z,6.45
2023-09-18T13:27:32.597Z,5.63
2023-09-18T13:29:59.382Z,6.10
2023-09-18T13:32:26.354Z,6.95
2023-09-18T13:34:54.552Z,5.93
2023-09-18T13:37:21.299Z,6.40
2023-09-18T13:39:48.161Z,6.22
2023-09-18T13:42:14.884Z,6.22
2023-09-18T13:44:41.680Z,5.63
2023-09-18T13:47:08.709Z,6.43
2023-09-18T13:49:35.849Z,6.18
2023-09-18T13:52:04.294Z,6.50
2023-09-18T13:54:31.078Z,6.32
2023-09-18T13:56:58.507Z,6.18
2023-09-18T13:59:26.043Z,5.93
2023-09-18T14:01:52.888Z,5.20
2023-09-18T14:04:19.600Z,5.50
2023-09-18T14:06:46.337Z,6.00
2023-09-18T14:09:14.654Z,6.35
2023-09-18T14:11:41.394Z,6.13
2023-09-18T14:14:08.157Z,6.45
2023-09-18T14:16:34.928Z,5.75
2023-09-18T14:19:01.712Z,6.00
2023-09-18T14:21:28.459Z,5.30
2023-09-18T14:23:55.233Z,6.25
2023-09-18T14:26:23.465Z,6.90
2023-09-18T14:28:50.233Z,5.97
2023-09-18T14:31:17.069Z,5.97
2023-09-18T14:33:43.843Z,6.00
2023-09-18T14:36:10.558Z,5.95
2023-09-18T14:38:37.283Z,6.47
2023-09-18T14:41:04.196Z,6.15
2023-09-18T14:43:32.364Z,6.22
2023-09-18T14:45:59.177Z,6.00
2023-09-18T14:48:25.994Z,5.90
2023-09-18T14:50:54.779Z,6.82
2023-09-18T14:53:21.610Z,5.95
2023-09-18T14:55:48.365Z,5.40
2023-09-18T14:58:15.176Z,6.53
2023-09-18T15:00:43.357Z,5.80
2023-09-18T15:03:10.225Z,5.53
2023-09-18T15:05:37.093Z,5.72
2023-09-18T15:08:04.917Z,5.80
2023-09-18T15:10:31.679Z,6.00
2023-09-18T15:12:58.403Z,6.22
2023-09-18T15:15:25.164Z,5.28
2023-09-18T15:17:53.353Z,5.72
2023-09-18T15:20:20.214Z,6.75
2023-09-18T15:22:46.996Z,5.93
2023-09-18T15:25:13.783Z,5.95
2023-09-18T15:27:40.594Z,5.53
2023-09-18T15:30:08.353Z,6.05
2023-09-18T15:32:47.411Z,5.85
2023-09-18T15:35:15.693Z,6.45
2023-09-18T15:37:42.372Z,6.18
2023-09-18T15:40:10.049Z,6.18
2023-09-18T15:42:37.564Z,5.55
2023-09-18T15:45:05.244Z,6.00
2023-09-18T15:47:32.096Z,6.38
2023-09-18T15:49:58.855Z,5.95
2023-09-18T15:52:26.946Z,6.25
2023-09-18T15:54:53.639Z,6.25
2023-09-18T15:57:20.440Z,6.68
2023-09-18T15:59:47.185Z,6.25
2023-09-18T16:02:13.941Z,6.50
2023-09-18T16:04:40.863Z,6.07
2023-09-18T16:07:07.648Z,6.55
2023-09-18T16:09:35.731Z,6.80
2023-09-18T16:12:02.548Z,7.05
2023-09-18T16:14:29.446Z,6.57
2023-09-18T16:16:56.283Z,6.70
2023-09-18T16:19:24.055Z,6.60
2023-09-18T16:21:50.848Z,6.80
2023-09-18T16:24:17.614Z,6.57
2023-09-18T16:26:45.863Z,6.63
2023-09-18T16:29:12.627Z,6.57
2023-09-18T16:31:39.364Z,6.70
2023-09-18T16:34:06.187Z,6.68
2023-09-18T16:36:32.954Z,6.72
2023-09-18T16:38:59.787Z,6.93
2023-09-18T16:41:26.654Z,6.90
2023-09-18T16:43:54.852Z,6.25
2023-09-18T16:46:21.743Z,7.05
2023-09-18T16:48:48.510Z,6.82
2023-09-18T16:51:15.243Z,7.05
2023-09-18T16:53:42.120Z,6.93
2023-09-18T16:56:08.940Z,7.00
2023-09-18T16:58:36.129Z,7.32
2023-09-18T17:01:04.302Z,6.70
2023-09-18T17:03:31.341Z,6.18
2023-09-18T17:05:58.211Z,6.47
2023-09-18T17:08:26.265Z,6.70
2023-09-18T17:10:53.031Z,6.90
2023-09-18T17:13:19.737Z,7.07
2023-09-18T17:15:46.455Z,7.03
2023-09-18T17:18:14.770Z,7.10
2023-09-18T17:20:41.708Z,6.43
2023-09-18T17:23:08.437Z,7.05
2023-09-18T17:25:35.246Z,6.88
2023-09-18T17:28:20.972Z,7.47
2023-09-18T17:30:47.685Z,7.53
2023-09-18T17:33:15.790Z,6.72
2023-09-18T17:35:44.220Z,6.90
2023-09-18T17:38:10.935Z,7.28
2023-09-18T17:40:37.767Z,7.00
2023-09-18T17:43:04.673Z,6.60
2023-09-18T17:45:31.434Z,6.50
2023-09-18T17:47:58.231Z,7.18
2023-09-18T17:50:26.484Z,7.25
2023-09-18T17:52:53.241Z,7.60
2023-09-18T17:55:19.978Z,7.22
2023-09-18T17:57:46.772Z,7.22
2023-09-18T18:00:14.284Z,7.35
2023-09-18T18:02:41.504Z,7.30
2023-09-18T18:05:11.852Z,7.00
2023-09-18T18:07:40.206Z,7.32
2023-09-18T18:10:07.723Z,6.72
2023-09-18T18:12:34.499Z,7.28
2023-09-18T18:15:01.293Z,6.97
2023-09-18T18:17:28.848Z,6.63
2023-09-18T18:19:55.878Z,7.55
2023-09-18T18:22:22.688Z,7.10
2023-09-18T18:24:50.777Z,6.97
2023-09-18T18:27:17.482Z,6.13
2023-09-18T18:29:44.288Z,6.75
2023-09-18T18:32:11.065Z,7.18
2023-09-18T18:34:37.791Z,7.15
2023-09-18T18:37:04.577Z,6.38
2023-09-18T18:39:31.290Z,6.57
2023-09-18T18:41:59.461Z,6.90
2023-09-18T18:44:26.308Z,6.30
2023-09-18T18:46:53.100Z,6.57
2023-09-18T18:49:19.819Z,6.50
2023-09-18T18:51:46.570Z,6.45
2023-09-18T18:54:16.391Z,6.32
2023-09-18T18:56:43.154Z,6.70
2023-09-18T18:59:11.285Z,6.97
2023-09-18T19:01:38.024Z,6.80
2023-09-18T19:04:05.391Z,5.93
2023-09-18T19:06:32.224Z,6.75
2023-09-18T19:08:59.013Z,6.95
2023-09-18T19:11:25.758Z,6.90
2023-09-18T19:13:52.523Z,6.15
2023-09-18T19:16:21.124Z,6.88
2023-09-18T19:18:47.955Z,6.60
2023-09-18T19:21:14.768Z,7.43
2023-09-18T19:23:41.689Z,6.97
2023-09-18T19:26:08.631Z,6.28
2023-09-18T19:28:35.457Z,6.32
2023-09-18T19:31:02.260Z,7.10
2023-09-18T19:33:30.469Z,6.47
2023-09-18T19:35:57.348Z,7.20
2023-09-18T19:38:24.222Z,6.60
2023-09-18T19:40:51.397Z,7.45
2023-09-18T19:43:18.163Z,6.82
2023-09-18T19:45:45.145Z,6.95
2023-09-18T19:48:12.002Z,7.90
2023-09-18T19:50:40.271Z,6.80
2023-09-18T19:53:07.013Z,7.00
2023-09-18T19:55:33.759Z,6.35
2023-09-18T19:58:00.822Z,6.57
2023-09-18T20:00:27.682Z,6.50
2023-09-18T20:02:54.664Z,6.70
2023-09-18T20:05:21.642Z,7.78
2023-09-18T20:07:49.761Z,6.88
2023-09-18T20:10:16.543Z,6.68
2023-09-18T20:12:43.782Z,7.13
2023-09-18T20:15:10.950Z,6.30
2023-09-18T20:17:37.746Z,7.20
2023-09-18T20:20:05.955Z,6.47
2023-09-18T20:22:32.727Z,6.75
2023-09-18T20:25:00.934Z,6.68
2023-09-18T20:27:33.756Z,5.65
2023-09-18T20:30:00.783Z,5.80
2023-09-18T20:32:27.645Z,6.65
2023-09-18T20:34:54.360Z,7.03
2023-09-18T20:37:21.151Z,6.15
2023-09-18T20:39:47.908Z,6.63
2023-09-18T20:42:15.991Z,5.95
2023-09-18T20:44:42.730Z,7.22
2023-09-18T20:47:09.614Z,6.18
2023-09-18T20:49:36.331Z,5.47
2023-09-18T20:52:03.049Z,5.57
2023-09-18T20:54:29.757Z,5.60
2023-09-18T20:56:56.498Z,5.25
2023-09-18T20:59:25.950Z,5.32
2023-09-18T21:01:52.753Z,5.32
2023-09-18T21:04:19.709Z,4.45
2023-09-18T21:06:46.504Z,5.78
2023-09-18T21:09:13.285Z,3.85
2023-09-18T21:11:40.086Z,4.88
2023-09-18T21:14:06.806Z,5.43
2023-09-18T21:16:34.977Z,5.38
2023-09-18T21:19:01.706Z,4.93
2023-09-18T21:21:28.459Z,4.80
2023-09-18T21:23:55.274Z,4.35
2023-09-18T21:26:22.007Z,4.88
2023-09-18T21:28:48.759Z,3.78
2023-09-18T21:31:15.496Z,4.20
2023-09-18T21:33:43.785Z,4.63
2023-09-18T21:36:14.195Z,4.07
2023-09-18T21:38:41.645Z,4.80
2023-09-18T21:41:08.364Z,4.60
2023-09-18T21:43:35.061Z,4.57
2023-09-18T21:46:02.128Z,4.00
2023-09-18T21:48:28.976Z,4.57
2023-09-18T21:50:57.224Z,4.07
2023-09-18T21:53:24.062Z,4.63
2023-09-18T21:55:50.767Z,5.03
2023-09-18T21:58:17.506Z,4.80
2023-09-18T22:00:44.351Z,5.05
2023-09-18T22:03:11.180Z,4.88
2023-09-18T22:05:39.432Z,3.53
2023-09-18T22:08:07.801Z,4.50
2023-09-18T22:10:34.520Z,4.22
2023-09-18T22:13:01.443Z,4.22
2023-09-18T22:15:28.342Z,4.28
2023-09-18T22:17:55.180Z,3.20
2023-09-18T22:20:21.942Z,5.15
2023-09-18T22:22:48.683Z,4.22
2023-09-18T22:25:16.946Z,3.85
2023-09-18T22:27:43.650Z,4.28
2023-09-18T22:30:11.065Z,4.55
2023-09-18T22:32:37.892Z,4.20
2023-09-18T22:35:05.234Z,3.80
2023-09-18T22:37:31.997Z,4.82
2023-09-18T22:40:05.041Z,4.28
2023-09-18T22:43:09.259Z,4.22
2023-09-18T22:46:13.318Z,4.70
2023-09-18T22:49:17.255Z,4.20
2023-09-18T22:52:21.432Z,4.80
2023-09-18T22:54:51.069Z,3.83
2023-09-18T22:57:17.911Z,4.57
2023-09-18T22:59:44.710Z,4.85
2023-09-18T23:02:11.714Z,4.85
2023-09-18T23:04:38.572Z,4.47
2023-09-18T23:07:05.590Z,4.93
2023-09-18T23:09:32.344Z,4.60
2023-09-18T23:12:00.437Z,5.22
2023-09-18T23:14:27.254Z,3.72
2023-09-18T23:17:03.437Z,4.45
2023-09-18T23:19:30.236Z,5.40
2023-09-18T23:21:56.959Z,5.15
2023-09-18T23:24:23.706Z,5.25
2023-09-18T23:26:50.407Z,5.60
2023-09-18T23:29:18.506Z,4.65
2023-09-18T23:31:45.313Z,5.53
2023-09-18T23:34:12.307Z,5.55
2023-09-18T23:36:39.038Z,5.22
2023-09-18T23:39:05.781Z,5.07
2023-09-18T23:41:46.184Z,5.50
2023-09-18T23:44:20.592Z,4.78
2023-09-18T23:46:47.657Z,5.03
2023-09-18T23:49:14.472Z,4.95
2023-09-18T23:51:41.208Z,5.40
2023-09-18T23:54:08.122Z,5.20
2023-09-18T23:56:34.862Z,5.43
2023-09-18T23:59:01.612Z,5.28
